createdAt,value
2022-08-26T00:01:47.492Z,0.93
2022-08-26T00:04:15.057Z,0.82
2022-08-26T00:06:46.380Z,0.90
2022-08-26T00:09:16.136Z,1.20
2022-08-26T00:11:44.286Z,1.10
2022-08-26T00:14:13.273Z,1.05
2022-08-26T00:16:48.042Z,1.20
2022-08-26T00:19:16.869Z,1.00
2022-08-26T00:21:45.726Z,1.52
2022-08-26T00:24:13.300Z,1.17
2022-08-26T00:26:41.399Z,1.10
2022-08-26T00:29:09.379Z,0.95
2022-08-26T00:31:37.164Z,0.70
2022-08-26T00:34:04.743Z,0.90
2022-08-26T00:36:32.763Z,1.00
2022-08-26T00:39:01.907Z,1.25
2022-08-26T00:41:30.371Z,0.90
2022-08-26T00:43:57.917Z,0.80
2022-08-26T00:46:28.853Z,1.00
2022-08-26T00:49:00.614Z,0.90
2022-08-26T00:51:29.849Z,0.70
2022-08-26T00:53:59.296Z,0.70
2022-08-26T00:56:31.224Z,0.95
2022-08-26T00:59:00.969Z,1.05
2022-08-26T01:01:28.983Z,0.77
2022-08-26T01:03:58.792Z,0.83
2022-08-26T01:06:28.415Z,0.90
2022-08-26T01:08:56.343Z,1.23
2022-08-26T01:11:24.741Z,0.85
2022-08-26T01:13:55.230Z,1.00
2022-08-26T01:16:24.873Z,1.10
2022-08-26T01:18:53.751Z,1.13
2022-08-26T01:21:27.174Z,1.10
2022-08-26T01:23:57.250Z,1.17
2022-08-26T01:26:26.302Z,1.10
2022-08-26T01:28:56.629Z,1.03
2022-08-26T01:31:25.739Z,1.20
2022-08-26T01:33:56.557Z,1.20
2022-08-26T01:36:25.216Z,0.95
2022-08-26T01:38:52.977Z,1.10
2022-08-26T01:41:27.139Z,1.10
2022-08-26T01:43:56.875Z,1.20
2022-08-26T01:46:27.537Z,1.20
2022-08-26T01:48:56.211Z,1.42
2022-08-26T01:51:25.348Z,1.10
2022-08-26T01:53:52.948Z,1.00
2022-08-26T01:56:22.931Z,1.10
2022-08-26T01:58:52.556Z,0.90
2022-08-26T02:01:20.389Z,1.48
2022-08-26T02:03:51.559Z,1.20
2022-08-26T02:06:19.607Z,1.10
2022-08-26T02:08:49.101Z,1.10
2022-08-26T02:11:18.307Z,1.00
2022-08-26T02:13:49.336Z,1.30
2022-08-26T02:16:19.799Z,1.02
2022-08-26T02:18:47.639Z,0.97
2022-08-26T02:21:15.480Z,1.10
2022-08-26T02:23:43.068Z,0.95
2022-08-26T02:26:14.403Z,1.02
2022-08-26T02:28:50.182Z,0.70
2022-08-26T02:31:18.050Z,1.00
2022-08-26T02:33:45.563Z,0.93
2022-08-26T02:36:13.479Z,0.88
2022-08-26T02:38:43.219Z,1.00
2022-08-26T02:41:11.175Z,0.75
2022-08-26T02:43:38.606Z,0.80
2022-08-26T02:46:07.768Z,0.90
2022-08-26T02:48:36.125Z,0.95
2022-08-26T02:51:04.214Z,0.75
2022-08-26T02:53:35.448Z,0.70
2022-08-26T02:56:03.280Z,0.80
2022-08-26T02:58:30.823Z,0.85
2022-08-26T03:00:58.272Z,1.00
2022-08-26T03:03:27.360Z,1.00
2022-08-26T03:05:55.243Z,1.00
2022-08-26T03:08:22.791Z,0.80
2022-08-26T03:10:50.889Z,0.90
2022-08-26T03:13:18.586Z,1.08
2022-08-26T03:15:47.670Z,0.90
2022-08-26T03:18:16.009Z,0.95
2022-08-26T03:20:45.507Z,0.93
2022-08-26T03:23:12.947Z,0.90
2022-08-26T03:25:40.876Z,1.10
2022-08-26T03:28:09.559Z,0.90
2022-08-26T03:30:45.335Z,0.80
2022-08-26T03:33:13.645Z,1.30
2022-08-26T03:35:42.999Z,0.90
2022-08-26T03:38:12.008Z,0.95
2022-08-26T03:40:40.171Z,0.98
2022-08-26T03:43:09.594Z,0.85
2022-08-26T03:45:37.699Z,0.77
2022-08-26T03:48:05.138Z,0.57
2022-08-26T03:50:34.299Z,0.70
2022-08-26T03:53:03.687Z,0.85
2022-08-26T03:55:33.464Z,0.80
2022-08-26T03:58:01.688Z,0.90
2022-08-26T04:00:30.096Z,1.00
2022-08-26T04:02:57.654Z,0.85
2022-08-26T04:05:25.431Z,0.90
2022-08-26T04:07:53.092Z,1.05
2022-08-26T04:10:29.053Z,0.80
2022-08-26T04:12:58.934Z,0.70
2022-08-26T04:15:27.249Z,0.70
2022-08-26T04:17:55.828Z,0.80
2022-08-26T04:20:24.672Z,0.88
2022-08-26T04:22:52.848Z,0.70
2022-08-26T04:25:21.229Z,0.60
2022-08-26T04:27:48.658Z,1.00
2022-08-26T04:30:19.990Z,0.70
2022-08-26T04:32:47.543Z,0.90
2022-08-26T04:35:15.049Z,0.80
2022-08-26T04:37:43.876Z,0.60
2022-08-26T04:40:12.941Z,0.82
2022-08-26T04:42:40.461Z,0.88
2022-08-26T04:45:10.162Z,0.70
2022-08-26T04:47:39.693Z,0.90
2022-08-26T04:50:07.983Z,0.90
2022-08-26T04:52:35.514Z,0.60
2022-08-26T04:55:02.939Z,0.80
2022-08-26T04:57:33.680Z,0.70
2022-08-26T05:00:01.136Z,0.70
2022-08-26T05:02:29.536Z,0.60
2022-08-26T05:04:58.618Z,0.70
2022-08-26T05:07:26.796Z,0.82
2022-08-26T05:09:54.279Z,0.73
2022-08-26T05:12:21.966Z,0.70
2022-08-26T05:14:49.493Z,0.82
2022-08-26T05:17:16.934Z,0.50
2022-08-26T05:19:44.459Z,0.60
2022-08-26T05:22:13.382Z,0.90
2022-08-26T05:24:41.083Z,1.13
2022-08-26T05:27:11.849Z,0.60
2022-08-26T05:29:40.281Z,0.82
2022-08-26T05:32:07.977Z,0.88
2022-08-26T05:34:38.050Z,0.70
2022-08-26T05:37:06.737Z,0.70
2022-08-26T05:39:35.529Z,0.70
2022-08-26T05:42:04.016Z,0.57
2022-08-26T05:44:53.799Z,0.60
2022-08-26T05:47:18.747Z,0.50
2022-08-26T05:49:51.649Z,0.50
2022-08-26T05:52:19.317Z,0.65
2022-08-26T05:54:48.564Z,0.60
2022-08-26T05:57:16.008Z,0.65
2022-08-26T05:59:46.035Z,0.65
2022-08-26T06:02:13.453Z,0.80
2022-08-26T06:04:41.232Z,0.50
2022-08-26T06:07:11.570Z,0.38
2022-08-26T06:09:39.620Z,0.50
2022-08-26T06:12:13.880Z,0.60
2022-08-26T06:14:44.685Z,0.60
2022-08-26T06:17:12.194Z,0.60
2022-08-26T06:19:43.117Z,0.40
2022-08-26T06:22:24.623Z,0.40
2022-08-26T06:25:10.827Z,0.80
2022-08-26T06:27:39.894Z,0.63
2022-08-26T06:30:09.721Z,0.60
2022-08-26T06:32:37.142Z,0.45
2022-08-26T06:35:04.903Z,0.75
2022-08-26T06:37:32.291Z,0.40
2022-08-26T06:40:02.269Z,0.50
2022-08-26T06:42:32.980Z,0.60
2022-08-26T06:45:02.742Z,0.47
2022-08-26T06:47:32.764Z,0.50
2022-08-26T06:50:01.762Z,0.50
2022-08-26T06:52:29.146Z,0.60
2022-08-26T06:54:56.667Z,0.40
2022-08-26T06:57:24.060Z,0.50
2022-08-26T06:59:51.438Z,0.43
2022-08-26T07:02:20.838Z,0.43
2022-08-26T07:04:48.304Z,0.50
2022-08-26T07:07:18.750Z,0.50
2022-08-26T07:09:49.541Z,0.40
2022-08-26T07:12:24.279Z,0.40
2022-08-26T07:14:52.951Z,0.40
2022-08-26T07:17:24.941Z,0.80
2022-08-26T07:19:53.548Z,0.70
2022-08-26T07:22:20.986Z,0.52
2022-08-26T07:24:48.425Z,0.70
2022-08-26T07:27:17.005Z,0.50
2022-08-26T07:29:44.792Z,0.30
2022-08-26T07:32:13.632Z,0.40
2022-08-26T07:34:42.844Z,0.45
2022-08-26T07:37:11.168Z,0.50
2022-08-26T07:39:40.411Z,0.50
2022-08-26T07:42:08.669Z,0.60
2022-08-26T07:44:36.157Z,0.40
2022-08-26T07:47:03.635Z,0.80
2022-08-26T07:49:38.143Z,0.40
2022-08-26T07:52:07.467Z,0.47
2022-08-26T07:54:37.280Z,0.50
2022-08-26T07:57:05.097Z,0.40
2022-08-26T07:59:35.864Z,0.57
2022-08-26T08:02:03.324Z,0.68
2022-08-26T08:04:30.804Z,0.40
2022-08-26T08:06:58.446Z,0.60
2022-08-26T08:09:28.673Z,0.60
2022-08-26T08:11:56.347Z,0.90
2022-08-26T08:14:23.777Z,0.70
2022-08-26T08:16:54.820Z,0.63
2022-08-26T08:19:23.040Z,0.70
2022-08-26T08:21:51.532Z,0.60
2022-08-26T08:24:19.796Z,0.80
2022-08-26T08:26:49.333Z,0.73
2022-08-26T08:29:16.856Z,0.88
2022-08-26T08:31:59.982Z,0.80
2022-08-26T08:34:29.020Z,0.77
2022-08-26T08:36:57.130Z,0.77
2022-08-26T08:39:25.368Z,0.82
2022-08-26T08:41:59.991Z,0.70
2022-08-26T08:47:01.972Z,0.65
2022-08-26T08:49:30.492Z,0.60
2022-08-26T08:52:02.380Z,0.35
2022-08-26T08:54:32.158Z,0.50
2022-08-26T08:57:06.458Z,0.70
2022-08-26T08:59:38.294Z,0.65
2022-08-26T09:02:08.941Z,0.50
2022-08-26T09:04:52.650Z,0.68
2022-08-26T09:07:21.656Z,0.70
2022-08-26T09:09:51.542Z,0.60
2022-08-26T09:12:29.777Z,0.60
2022-08-26T09:15:04.054Z,0.60
2022-08-26T09:17:38.875Z,0.80
2022-08-26T09:20:11.593Z,0.70
2022-08-26T09:22:40.604Z,0.70
2022-08-26T09:25:13.030Z,0.80
2022-08-26T09:27:43.865Z,0.93
2022-08-26T09:30:12.646Z,0.70
2022-08-26T09:32:40.208Z,0.95
2022-08-26T09:35:09.208Z,0.70
2022-08-26T09:37:41.315Z,0.80
2022-08-26T09:40:14.287Z,0.70
2022-08-26T09:42:43.482Z,0.90
2022-08-26T09:45:12.871Z,0.50
2022-08-26T09:47:52.431Z,0.60
2022-08-26T09:50:28.808Z,0.68
2022-08-26T09:53:12.908Z,0.60
2022-08-26T09:55:42.902Z,0.70
2022-08-26T09:58:15.043Z,1.10
2022-08-26T10:00:43.584Z,0.90
2022-08-26T10:03:15.528Z,0.90
2022-08-26T10:05:44.579Z,0.80
2022-08-26T10:08:23.522Z,0.70
2022-08-26T10:10:53.235Z,0.55
2022-08-26T10:13:26.751Z,0.70
2022-08-26T10:16:00.618Z,1.05
2022-08-26T10:18:34.216Z,1.00
2022-08-26T10:21:08.329Z,0.70
2022-08-26T10:26:15.147Z,0.90
2022-08-26T10:28:49.087Z,0.80
2022-08-26T10:31:27.421Z,0.80
2022-08-26T10:34:00.095Z,0.80
2022-08-26T10:37:10.634Z,1.05
2022-08-26T10:39:38.087Z,0.63
2022-08-26T10:42:09.505Z,0.93
2022-08-26T10:44:41.057Z,0.80
2022-08-26T10:47:16.204Z,0.90
2022-08-26T10:49:46.613Z,1.10
2022-08-26T10:52:17.836Z,0.80
2022-08-26T10:54:47.167Z,0.70
2022-08-26T10:57:18.324Z,0.85
2022-08-26T10:59:51.728Z,0.85
2022-08-26T11:02:24.778Z,0.90
2022-08-26T11:04:55.892Z,0.63
2022-08-26T11:07:31.804Z,0.90
2022-08-26T11:10:00.353Z,0.80
2022-08-26T11:12:49.355Z,0.60
2022-08-26T11:15:33.235Z,0.63
2022-08-26T11:18:05.124Z,0.73
2022-08-26T11:20:35.163Z,0.85
2022-08-26T11:23:18.145Z,0.70
2022-08-26T11:26:00.489Z,0.90
2022-08-26T11:28:33.326Z,0.70
2022-08-26T11:31:02.826Z,0.87
2022-08-26T11:33:47.378Z,0.90
2022-08-26T11:36:34.859Z,0.63
2022-08-26T11:39:05.514Z,0.90
2022-08-26T11:41:34.284Z,0.98
2022-08-26T11:44:05.395Z,0.70
2022-08-26T11:46:37.311Z,0.90
2022-08-26T11:49:09.549Z,1.33
2022-08-26T11:51:40.898Z,1.10
2022-08-26T11:54:12.171Z,0.60
2022-08-26T11:56:41.892Z,0.60
2022-08-26T11:59:10.582Z,0.90
2022-08-26T12:01:38.910Z,0.90
2022-08-26T12:04:07.867Z,1.20
2022-08-26T12:06:38.929Z,1.13
2022-08-26T12:09:15.724Z,1.00
2022-08-26T12:11:43.869Z,1.00
2022-08-26T12:14:17.517Z,0.95
2022-08-26T12:16:45.516Z,1.00
2022-08-26T12:19:22.547Z,1.40
2022-08-26T12:21:54.904Z,0.80
2022-08-26T12:24:26.304Z,0.95
2022-08-26T12:27:06.152Z,1.05
2022-08-26T12:29:33.673Z,1.20
2022-08-26T12:32:08.630Z,1.02
2022-08-26T12:34:36.422Z,0.97
2022-08-26T12:37:04.033Z,0.80
2022-08-26T12:39:37.027Z,0.80
2022-08-26T12:42:06.378Z,0.85
2022-08-26T12:44:38.239Z,1.15
2022-08-26T12:47:08.217Z,1.00
2022-08-26T12:49:36.383Z,0.73
2022-08-26T12:52:04.239Z,0.80
2022-08-26T12:54:45.632Z,0.80
2022-08-26T12:57:14.496Z,0.90
2022-08-26T12:59:41.965Z,0.70
2022-08-26T13:02:09.634Z,1.13
2022-08-26T13:04:39.292Z,0.80
2022-08-26T13:07:13.437Z,1.10
2022-08-26T13:09:40.982Z,0.90
2022-08-26T13:12:11.502Z,0.77
2022-08-26T13:14:40.510Z,0.90
2022-08-26T13:17:07.954Z,1.08
2022-08-26T13:19:35.748Z,0.80
2022-08-26T13:22:04.310Z,1.00
2022-08-26T13:24:33.266Z,0.87
2022-08-26T13:27:01.189Z,0.70
2022-08-26T13:29:28.745Z,0.95
2022-08-26T13:31:58.932Z,1.00
2022-08-26T13:34:26.420Z,0.80
2022-08-26T13:36:55.422Z,0.77
2022-08-26T13:39:23.632Z,0.77
2022-08-26T13:41:51.576Z,0.77
2022-08-26T13:44:19.024Z,0.88
2022-08-26T13:46:46.505Z,1.00
2022-08-26T13:49:15.999Z,0.90
2022-08-26T13:51:43.534Z,0.85
2022-08-26T13:54:11.110Z,0.90
2022-08-26T13:56:38.519Z,0.75
2022-08-26T13:59:06.657Z,1.00
2022-08-26T14:01:34.555Z,1.10
2022-08-26T14:04:02.981Z,0.88
2022-08-26T14:06:31.759Z,0.95
2022-08-26T14:08:59.194Z,0.80
2022-08-26T14:11:26.895Z,0.88
2022-08-26T14:13:54.263Z,0.93
2022-08-26T14:16:23.720Z,1.08
2022-08-26T14:18:53.900Z,0.68
2022-08-26T14:21:21.528Z,0.73
2022-08-26T14:23:50.255Z,0.90
2022-08-26T14:26:28.358Z,1.00
2022-08-26T14:28:56.570Z,0.90
2022-08-26T14:31:24.163Z,1.10
2022-08-26T14:33:51.630Z,0.90
2022-08-26T14:36:32.202Z,1.30
2022-08-26T14:39:06.222Z,1.00
2022-08-26T14:41:34.390Z,0.90
2022-08-26T14:44:03.393Z,0.95
2022-08-26T14:46:33.066Z,0.90
2022-08-26T14:49:05.222Z,1.00
2022-08-26T14:51:34.804Z,1.10
2022-08-26T14:54:12.712Z,1.00
2022-08-26T14:56:44.867Z,1.00
2022-08-26T14:59:12.622Z,0.85
2022-08-26T15:01:40.358Z,0.98
2022-08-26T15:04:08.294Z,1.10
2022-08-26T15:06:36.901Z,0.90
2022-08-26T15:09:06.109Z,1.10
2022-08-26T15:11:33.931Z,1.00
2022-08-26T15:14:01.423Z,1.00
2022-08-26T15:16:29.160Z,0.90
2022-08-26T15:18:56.977Z,1.00
2022-08-26T15:21:24.496Z,1.10
2022-08-26T15:23:53.002Z,1.13
2022-08-26T15:26:22.182Z,1.05
2022-08-26T15:28:49.663Z,1.00
2022-08-26T15:31:17.399Z,0.97
2022-08-26T15:33:45.647Z,1.02
2022-08-26T15:36:13.105Z,1.00
2022-08-26T15:38:42.388Z,0.90
2022-08-26T15:41:10.537Z,1.30
2022-08-26T15:43:39.313Z,1.20
2022-08-26T15:46:10.647Z,0.68
2022-08-26T15:48:38.298Z,1.10
2022-08-26T15:51:06.123Z,1.20
2022-08-26T15:53:34.371Z,1.08
2022-08-26T15:56:02.346Z,1.10
2022-08-26T15:58:30.328Z,1.17
2022-08-26T16:00:59.768Z,1.00
2022-08-26T16:03:27.255Z,1.30
2022-08-26T16:05:54.835Z,1.20
2022-08-26T16:08:22.397Z,1.37
2022-08-26T16:10:51.216Z,1.30
2022-08-26T16:13:19.715Z,1.48
2022-08-26T16:15:47.526Z,1.38
2022-08-26T16:18:16.915Z,1.38
2022-08-26T16:20:55.204Z,1.20
2022-08-26T16:23:36.065Z,1.50
2022-08-26T16:26:10.672Z,1.50
2022-08-26T16:28:38.307Z,1.40
2022-08-26T16:31:06.512Z,1.48
2022-08-26T16:33:35.269Z,1.50
2022-08-26T16:36:02.755Z,1.30
2022-08-26T16:38:30.146Z,1.67
2022-08-26T16:40:57.646Z,2.15
2022-08-26T16:43:25.386Z,1.60
2022-08-26T16:45:52.825Z,1.67
2022-08-26T16:48:20.236Z,1.52
2022-08-26T16:50:49.296Z,1.80
2022-08-26T16:53:16.906Z,1.42
2022-08-26T16:55:45.297Z,1.75
2022-08-26T16:58:12.821Z,1.60
2022-08-26T17:00:40.244Z,1.58
2022-08-26T17:03:07.840Z,1.70
2022-08-26T17:05:36.189Z,1.23
2022-08-26T17:08:05.578Z,1.90
2022-08-26T17:10:33.706Z,1.87
2022-08-26T17:13:01.285Z,1.92
2022-08-26T17:15:28.966Z,2.17
2022-08-26T17:17:56.553Z,2.15
2022-08-26T17:20:24.662Z,1.80
2022-08-26T17:22:52.842Z,1.80
2022-08-26T17:25:23.687Z,1.75
2022-08-26T17:27:51.637Z,1.90
2022-08-26T17:30:19.633Z,2.03
2022-08-26T17:32:47.032Z,1.90
2022-08-26T17:35:16.160Z,2.10
2022-08-26T17:37:43.735Z,1.80
2022-08-26T17:40:13.186Z,1.90
2022-08-26T17:42:41.988Z,2.05
2022-08-26T17:45:10.092Z,1.90
2022-08-26T17:47:38.062Z,1.77
2022-08-26T17:50:06.416Z,1.60
2022-08-26T17:52:33.831Z,1.55
2022-08-26T17:55:01.404Z,1.55
2022-08-26T17:57:28.874Z,2.10
2022-08-26T17:59:58.158Z,1.60
2022-08-26T18:04:59.444Z,1.88
2022-08-26T18:07:28.182Z,1.70
2022-08-26T18:09:55.628Z,2.17
2022-08-26T18:12:23.097Z,1.60
2022-08-26T18:14:55.335Z,1.50
2022-08-26T18:17:25.818Z,1.80
2022-08-26T18:19:53.581Z,1.60
2022-08-26T18:22:21.403Z,1.60
2022-08-26T18:24:58.215Z,1.60
2022-08-26T18:27:28.827Z,1.60
2022-08-26T18:29:57.462Z,1.60
2022-08-26T18:32:26.288Z,1.48
2022-08-26T18:34:53.706Z,1.70
2022-08-26T18:37:21.310Z,1.70
2022-08-26T18:39:48.795Z,1.55
2022-08-26T18:42:16.441Z,1.30
2022-08-26T18:44:43.845Z,1.58
2022-08-26T18:47:12.114Z,2.00
2022-08-26T18:49:40.876Z,1.40
2022-08-26T18:52:08.385Z,1.42
2022-08-26T18:54:36.420Z,1.55
2022-08-26T18:57:03.906Z,1.40
2022-08-26T18:59:34.495Z,1.60
2022-08-26T19:02:02.053Z,1.67
2022-08-26T19:04:29.663Z,1.58
2022-08-26T19:06:58.443Z,1.50
2022-08-26T19:09:26.380Z,1.60
2022-08-26T19:14:23.873Z,1.63
2022-08-26T19:16:52.390Z,1.75
2022-08-26T19:19:22.676Z,1.60
2022-08-26T19:21:50.408Z,1.50
2022-08-26T19:24:19.791Z,1.70
2022-08-26T19:26:48.190Z,1.73
2022-08-26T19:31:48.520Z,1.90
2022-08-26T19:34:16.139Z,1.70
2022-08-26T19:36:48.118Z,1.63
2022-08-26T19:39:15.625Z,1.77
2022-08-26T19:41:44.486Z,1.88
2022-08-26T19:44:13.069Z,1.75
2022-08-26T19:46:40.694Z,1.55
2022-08-26T19:49:08.540Z,1.60
2022-08-26T19:51:36.642Z,1.63
2022-08-26T19:54:04.233Z,1.55
2022-08-26T19:56:31.680Z,1.60
2022-08-26T19:59:00.445Z,1.60
2022-08-26T20:01:27.872Z,1.70
2022-08-26T20:06:27.768Z,1.63
2022-08-26T20:08:56.343Z,1.65
2022-08-26T20:11:24.268Z,1.63
2022-08-26T20:13:51.968Z,1.67
2022-08-26T20:16:20.815Z,1.70
2022-08-26T20:19:06.064Z,1.63
2022-08-26T20:21:35.595Z,1.70
2022-08-26T20:24:04.750Z,1.75
2022-08-26T20:26:34.673Z,1.70
2022-08-26T20:29:02.163Z,1.60
2022-08-26T20:31:31.050Z,1.67
2022-08-26T20:33:58.598Z,1.50
2022-08-26T20:36:26.840Z,2.00
2022-08-26T20:38:54.749Z,1.80
2022-08-26T20:41:23.989Z,1.90
2022-08-26T20:43:51.438Z,1.67
2022-08-26T20:46:21.904Z,1.88
2022-08-26T20:48:53.490Z,2.00
2022-08-26T20:51:22.879Z,1.77
2022-08-26T20:53:51.127Z,1.90
2022-08-26T20:56:23.468Z,1.70
2022-08-26T20:58:51.424Z,1.80
2022-08-26T21:01:19.749Z,2.10
2022-08-26T21:03:47.797Z,2.00
2022-08-26T21:06:16.649Z,2.17
2022-08-26T21:08:44.991Z,2.30
2022-08-26T21:11:12.532Z,2.25
2022-08-26T21:14:03.376Z,2.20
2022-08-26T21:16:28.259Z,2.30
2022-08-26T21:18:55.690Z,2.03
2022-08-26T21:21:27.306Z,2.42
2022-08-26T21:23:55.135Z,2.35
2022-08-26T21:26:22.731Z,2.10
2022-08-26T21:28:50.519Z,2.30
2022-08-26T21:31:19.773Z,2.10
2022-08-26T21:33:47.698Z,2.30
2022-08-26T21:36:15.619Z,2.60
2022-08-26T21:38:44.373Z,2.40
2022-08-26T21:41:12.927Z,2.17
2022-08-26T21:43:41.622Z,2.00
2022-08-26T21:46:14.409Z,2.20
2022-08-26T21:48:42.648Z,2.10
2022-08-26T21:51:10.305Z,2.10
2022-08-26T21:53:37.840Z,2.50
2022-08-26T21:56:07.222Z,2.30
2022-08-26T21:58:35.564Z,2.38
2022-08-26T22:01:03.090Z,2.40
2022-08-26T22:03:30.571Z,2.35
2022-08-26T22:06:02.609Z,1.92
2022-08-26T22:08:33.807Z,2.20
2022-08-26T22:11:02.037Z,2.20
2022-08-26T22:13:33.058Z,2.40
2022-08-26T22:16:00.977Z,2.28
2022-08-26T22:18:29.632Z,2.50
2022-08-26T22:20:58.367Z,2.63
2022-08-26T22:23:25.979Z,2.50
2022-08-26T22:25:53.840Z,2.80
2022-08-26T22:28:22.148Z,2.60
2022-08-26T22:30:51.033Z,2.92
2022-08-26T22:33:18.562Z,2.77
2022-08-26T22:35:47.185Z,2.95
2022-08-26T22:38:14.967Z,3.00
2022-08-26T22:40:44.495Z,3.10
2022-08-26T22:43:12.050Z,2.60
2022-08-26T22:45:42.089Z,2.80
2022-08-26T22:48:11.683Z,2.78
2022-08-26T22:50:39.303Z,2.95
2022-08-26T22:53:06.985Z,2.95
2022-08-26T22:55:34.416Z,3.17
2022-08-26T22:58:01.933Z,2.70
2022-08-26T23:00:32.397Z,2.75
2022-08-26T23:03:00.105Z,2.83
2022-08-26T23:05:29.519Z,3.30
2022-08-26T23:07:57.171Z,3.20
2022-08-26T23:10:24.941Z,2.90
2022-08-26T23:12:53.368Z,3.05
2022-08-26T23:15:21.864Z,3.35
2022-08-26T23:17:58.584Z,3.50
2022-08-26T23:20:27.240Z,3.33
2022-08-26T23:22:56.701Z,2.97
2022-08-26T23:25:24.377Z,3.10
2022-08-26T23:27:52.223Z,3.20
2022-08-26T23:30:21.223Z,3.80
2022-08-26T23:32:50.183Z,3.38
2022-08-26T23:35:20.059Z,3.73
2022-08-26T23:37:48.056Z,3.20
2022-08-26T23:40:19.020Z,3.50
2022-08-26T23:42:46.692Z,3.70
2022-08-26T23:45:14.595Z,4.05
2022-08-26T23:47:42.030Z,4.07
2022-08-26T23:50:09.726Z,4.00
2022-08-26T23:52:54.506Z,3.97
2022-08-26T23:55:23.555Z,4.00
2022-08-26T23:57:51.072Z,3.75
